createdAt,value
2022-11-30T00:01:26.660Z,58.48
2022-11-30T00:06:28.559Z,58.65
2022-11-30T00:11:30.904Z,58.35
2022-11-30T00:16:34.040Z,58.67
2022-11-30T00:21:35.917Z,58.51
2022-11-30T00:26:37.984Z,59.04
2022-11-30T00:31:39.823Z,59.06
2022-11-30T00:36:41.638Z,58.79
2022-11-30T00:41:43.460Z,58.54
2022-11-30T00:46:45.271Z,58.38
2022-11-30T00:51:47.130Z,58.53
2022-11-30T00:56:48.924Z,58.40
2022-11-30T01:01:50.837Z,57.84
2022-11-30T01:06:52.652Z,57.90
2022-11-30T01:11:54.452Z,58.01
2022-11-30T01:16:56.535Z,57.81
2022-11-30T01:21:58.358Z,58.25
2022-11-30T01:27:00.567Z,57.68
2022-11-30T01:32:02.451Z,58.16
2022-11-30T01:37:04.265Z,57.70
2022-11-30T01:42:13.154Z,57.57
2022-11-30T01:47:14.981Z,57.62
2022-11-30T01:52:22.766Z,57.65
2022-11-30T01:57:36.948Z,57.43
2022-11-30T02:02:58.660Z,57.44
2022-11-30T02:08:01.385Z,57.52
2022-11-30T02:13:41.978Z,57.48
2022-11-30T02:18:48.425Z,57.22
2022-11-30T02:24:11.873Z,57.31
2022-11-30T02:29:23.019Z,57.46
2022-11-30T02:34:29.289Z,57.52
2022-11-30T02:39:31.143Z,57.05
2022-11-30T02:44:32.987Z,56.97
2022-11-30T02:49:45.488Z,57.13
2022-11-30T02:54:47.712Z,57.43
2022-11-30T02:59:50.232Z,57.01
2022-11-30T03:04:52.051Z,57.46
2022-11-30T03:09:53.881Z,57.39
2022-11-30T03:14:55.826Z,57.40
2022-11-30T03:19:57.710Z,57.32
2022-11-30T03:24:59.526Z,57.15
2022-11-30T03:30:01.801Z,57.22
2022-11-30T03:35:03.761Z,57.47
2022-11-30T03:40:06.273Z,57.41
2022-11-30T03:45:08.328Z,57.17
2022-11-30T03:50:11.290Z,57.15
2022-11-30T03:55:13.369Z,57.35
2022-11-30T04:00:15.537Z,57.50
2022-11-30T04:05:17.996Z,57.58
2022-11-30T04:10:20.184Z,57.58
2022-11-30T04:15:22.074Z,57.15
2022-11-30T04:20:24.023Z,57.22
2022-11-30T04:25:25.895Z,57.14
2022-11-30T04:30:27.919Z,57.40
2022-11-30T04:35:29.822Z,57.03
2022-11-30T04:40:31.641Z,57.05
2022-11-30T04:45:35.558Z,57.45
2022-11-30T04:50:38.031Z,57.25
2022-11-30T04:55:40.006Z,57.00
2022-11-30T05:00:41.839Z,57.53
2022-11-30T05:05:43.648Z,57.13
2022-11-30T05:10:50.180Z,57.37
2022-11-30T05:15:54.755Z,57.82
2022-11-30T05:20:56.636Z,57.17
2022-11-30T05:25:58.416Z,57.19
2022-11-30T05:31:05.080Z,57.33
2022-11-30T05:36:10.801Z,57.14
2022-11-30T05:41:13.497Z,57.23
2022-11-30T05:46:15.387Z,57.74
2022-11-30T05:51:19.153Z,57.75
2022-11-30T05:56:21.966Z,57.15
2022-11-30T06:01:28.455Z,57.88
2022-11-30T06:06:30.240Z,57.34
2022-11-30T06:11:32.064Z,57.25
2022-11-30T06:16:33.931Z,57.11
2022-11-30T06:21:35.788Z,57.56
2022-11-30T06:26:37.620Z,57.49
2022-11-30T06:31:39.619Z,57.75
2022-11-30T06:36:41.458Z,57.79
2022-11-30T06:41:43.266Z,57.75
2022-11-30T06:46:45.108Z,57.65
2022-11-30T06:51:46.917Z,57.76
2022-11-30T06:56:48.992Z,57.11
2022-11-30T07:01:50.821Z,57.40
2022-11-30T07:06:52.689Z,57.24
2022-11-30T07:11:54.580Z,57.18
2022-11-30T07:16:57.101Z,57.79
2022-11-30T07:21:58.975Z,57.90
2022-11-30T07:27:03.069Z,57.71
2022-11-30T07:32:05.123Z,58.14
2022-11-30T07:37:06.962Z,58.14
2022-11-30T07:42:08.809Z,57.44
2022-11-30T07:47:10.647Z,57.45
2022-11-30T07:52:12.552Z,57.61
2022-11-30T07:57:14.452Z,57.75
2022-11-30T08:02:16.405Z,57.54
2022-11-30T08:07:18.519Z,57.51
2022-11-30T08:12:20.417Z,57.22
2022-11-30T08:17:22.241Z,57.16
2022-11-30T08:22:24.075Z,56.96
2022-11-30T08:27:26.605Z,57.00
2022-11-30T08:32:28.456Z,56.89
2022-11-30T08:37:30.294Z,56.77
2022-11-30T08:42:32.143Z,56.85
2022-11-30T08:47:34.007Z,56.82
2022-11-30T08:52:36.049Z,56.48
2022-11-30T08:57:37.877Z,56.13
2022-11-30T09:02:39.758Z,55.91
2022-11-30T09:07:41.700Z,56.12
2022-11-30T09:12:43.688Z,55.51
2022-11-30T09:17:45.486Z,55.61
2022-11-30T09:22:47.302Z,55.54
2022-11-30T09:27:49.122Z,55.34
2022-11-30T09:32:50.930Z,55.28
2022-11-30T09:37:53.656Z,55.15
2022-11-30T09:43:14.658Z,55.37
2022-11-30T09:49:05.629Z,55.46
2022-11-30T09:54:15.273Z,55.26
2022-11-30T09:59:29.736Z,54.90
2022-11-30T10:04:31.584Z,54.61
2022-11-30T10:09:33.332Z,54.58
2022-11-30T10:14:47.452Z,54.70
2022-11-30T10:20:13.402Z,54.54
2022-11-30T10:25:27.702Z,54.33
2022-11-30T10:30:36.559Z,54.34
2022-11-30T10:35:44.499Z,54.29
2022-11-30T10:40:53.670Z,54.01
2022-11-30T10:45:55.752Z,55.03
2022-11-30T10:51:00.697Z,54.35
2022-11-30T10:56:09.884Z,54.50
2022-11-30T11:01:30.386Z,54.26
2022-11-30T11:06:33.604Z,54.25
2022-11-30T11:11:39.132Z,54.08
2022-11-30T11:16:55.969Z,53.40
2022-11-30T11:21:57.968Z,53.74
2022-11-30T11:27:00.039Z,53.78
2022-11-30T11:32:27.279Z,54.09
2022-11-30T11:37:37.850Z,54.07
2022-11-30T11:42:50.003Z,53.70
2022-11-30T11:48:29.172Z,54.07
2022-11-30T11:53:44.854Z,54.12
2022-11-30T11:59:10.671Z,54.03
2022-11-30T12:04:29.366Z,54.12
2022-11-30T12:09:37.471Z,54.35
2022-11-30T12:14:39.294Z,53.63
2022-11-30T12:19:54.607Z,54.06
2022-11-30T12:25:06.392Z,53.99
2022-11-30T12:30:49.266Z,53.86
2022-11-30T12:36:06.183Z,53.46
2022-11-30T12:41:30.712Z,52.97
2022-11-30T12:46:48.479Z,52.42
2022-11-30T12:52:17.242Z,51.99
2022-11-30T12:57:36.784Z,52.29
2022-11-30T13:02:47.971Z,52.63
2022-11-30T13:08:13.196Z,52.46
2022-11-30T13:13:19.946Z,51.91
2022-11-30T13:18:24.503Z,51.41
2022-11-30T13:23:42.673Z,50.18
2022-11-30T13:29:27.730Z,48.14
2022-11-30T13:34:30.326Z,47.63
2022-11-30T13:39:51.541Z,48.26
2022-11-30T13:44:53.860Z,49.23
2022-11-30T13:50:18.619Z,49.59
2022-11-30T13:55:35.798Z,48.81
2022-11-30T14:00:37.613Z,49.03
2022-11-30T14:05:41.256Z,49.92
2022-11-30T14:10:46.144Z,50.58
2022-11-30T14:15:47.944Z,51.40
2022-11-30T14:20:52.616Z,51.35
2022-11-30T14:25:57.378Z,51.68
2022-11-30T14:31:00.301Z,52.05
2022-11-30T14:36:02.997Z,51.50
2022-11-30T14:41:05.687Z,51.63
2022-11-30T14:46:12.982Z,51.65
2022-11-30T14:51:18.298Z,51.83
2022-11-30T14:56:49.849Z,51.68
2022-11-30T15:02:00.598Z,52.50
2022-11-30T15:07:02.600Z,52.16
2022-11-30T15:12:04.590Z,52.50
2022-11-30T15:17:14.633Z,52.75
2022-11-30T15:22:23.041Z,52.43
2022-11-30T15:27:25.050Z,52.65
2022-11-30T15:32:27.276Z,53.02
2022-11-30T15:37:35.522Z,52.98
2022-11-30T15:42:43.692Z,52.84
2022-11-30T15:47:45.609Z,53.05
2022-11-30T15:52:50.952Z,53.32
2022-11-30T15:58:03.374Z,53.75
2022-11-30T16:03:13.320Z,53.46
2022-11-30T16:08:18.150Z,53.04
2022-11-30T16:13:22.660Z,53.79
2022-11-30T16:18:28.359Z,53.60
2022-11-30T16:23:30.352Z,53.58
2022-11-30T16:28:32.211Z,53.57
2022-11-30T16:33:34.070Z,53.83
2022-11-30T16:38:35.877Z,54.01
2022-11-30T16:43:40.440Z,53.90
2022-11-30T16:48:42.654Z,53.77
2022-11-30T16:53:45.564Z,54.05
2022-11-30T16:58:48.021Z,54.10
2022-11-30T17:03:51.886Z,54.33
2022-11-30T17:08:54.105Z,54.36
2022-11-30T17:13:56.411Z,54.29
2022-11-30T17:18:58.410Z,54.44
2022-11-30T17:24:01.375Z,54.46
2022-11-30T17:29:04.604Z,54.20
2022-11-30T17:34:08.646Z,54.19
2022-11-30T17:39:10.656Z,54.21
2022-11-30T17:44:12.489Z,54.22
2022-11-30T17:49:14.324Z,54.29
2022-11-30T17:54:17.016Z,53.96
2022-11-30T17:59:19.501Z,54.33
2022-11-30T18:04:21.365Z,54.31
2022-11-30T18:09:24.426Z,54.42
2022-11-30T18:14:26.342Z,54.61
2022-11-30T18:19:28.125Z,54.57
2022-11-30T18:24:32.042Z,54.66
2022-11-30T18:29:34.099Z,54.86
2022-11-30T18:34:36.049Z,54.88
2022-11-30T18:39:37.886Z,54.72
2022-11-30T18:44:39.735Z,54.96
2022-11-30T18:49:41.589Z,54.99
2022-11-30T18:54:43.481Z,54.62
2022-11-30T18:59:48.724Z,54.77
2022-11-30T19:04:52.949Z,55.05
2022-11-30T19:09:55.374Z,55.26
2022-11-30T19:14:57.888Z,55.41
2022-11-30T19:20:00.758Z,55.37
2022-11-30T19:25:02.700Z,55.35
2022-11-30T19:30:06.676Z,55.31
2022-11-30T19:35:08.546Z,55.33
2022-11-30T19:40:10.939Z,55.43
2022-11-30T19:45:12.803Z,55.60
2022-11-30T19:50:14.845Z,55.47
2022-11-30T19:55:16.779Z,55.66
2022-11-30T20:00:19.067Z,56.15
2022-11-30T20:05:20.910Z,55.60
2022-11-30T20:10:23.253Z,55.40
2022-11-30T20:15:25.735Z,55.74
2022-11-30T20:20:27.648Z,55.90
2022-11-30T20:25:31.196Z,55.87
2022-11-30T20:30:33.126Z,55.98
2022-11-30T20:35:35.296Z,55.87
2022-11-30T20:40:39.877Z,55.50
2022-11-30T20:45:41.707Z,55.97
2022-11-30T20:50:51.332Z,56.10
2022-11-30T20:56:06.321Z,55.74
2022-11-30T21:01:14.147Z,55.65
2022-11-30T21:06:16.061Z,56.04
2022-11-30T21:11:20.215Z,55.92
2022-11-30T21:16:28.296Z,55.98
2022-11-30T21:21:33.434Z,56.15
2022-11-30T21:26:41.289Z,55.83
2022-11-30T21:31:43.990Z,55.89
2022-11-30T21:36:46.021Z,55.69
2022-11-30T21:41:47.921Z,56.13
2022-11-30T21:46:50.455Z,55.66
2022-11-30T21:51:53.635Z,56.11
2022-11-30T21:56:55.389Z,56.26
2022-11-30T22:01:57.198Z,56.23
2022-11-30T22:06:59.049Z,56.31
2022-11-30T22:12:00.886Z,56.50
2022-11-30T22:17:02.742Z,56.89
2022-11-30T22:22:04.630Z,56.50
2022-11-30T22:27:06.492Z,56.42
2022-11-30T22:32:08.368Z,56.42
2022-11-30T22:37:10.189Z,56.34
2022-11-30T22:42:12.017Z,55.99
2022-11-30T22:47:15.066Z,56.44
2022-11-30T22:52:16.876Z,56.58
2022-11-30T22:57:18.857Z,56.81
2022-11-30T23:02:20.674Z,57.26
2022-11-30T23:07:25.151Z,57.23
2022-11-30T23:12:58.043Z,57.26
2022-11-30T23:17:52.608Z,56.97
2022-11-30T23:22:54.455Z,56.90
2022-11-30T23:27:56.324Z,57.53
2022-11-30T23:32:58.207Z,57.08
2022-11-30T23:38:00.028Z,57.48
2022-11-30T23:43:01.832Z,56.80
2022-11-30T23:48:03.708Z,57.31
2022-11-30T23:53:05.538Z,57.11
2022-11-30T23:58:07.360Z,57.18
